Apostolos A — 9HKR6 — position and weather

sailwx.info

Track history (hours):
 
Tides and Currents Weather Stations Pressure Air Temp Water Temp Dewpoint Dewpoint Depression Visibility Wind Speed Wind Dir Waves Ship Positions

Apostolos A

Last reported at 2015-Apr-13 12:04 UTC. Time now 2015-Apr-19 10:57 UTC.
Position N 44°52' E 036°39'.

Length 182 m; draft 12.2 m.

Type: Tanker. MMSI: 248594000.

Date/timePositionNaut miles runAvg speedWind from/ knotsBaromVisibWave heightAir tempDewpointWater temp
2015-Apr-13 12:04N 44°52' E 036°39'  
2015-Apr-09 00:05N 44°36' E 037°47'5 9.3
2015-Apr-08 23:33N 44°40' E 037°50'4 3.6
2015-Apr-08 22:26N 44°44' E 037°47'0 0.0
2015-Apr-08 20:32N 44°44' E 037°47'0 0.0
2015-Apr-08 17:20N 44°44' E 037°47'0 0.0
2015-Apr-08 16:32N 44°44' E 037°47'0 0.0
2015-Apr-08 15:32N 44°44' E 037°47'0 0.0
2015-Apr-08 14:32N 44°44' E 037°47'0 0.0
2015-Apr-08 13:32N 44°44' E 037°47'0 0.0
2015-Apr-08 12:32N 44°44' E 037°47'0 0.0
2015-Apr-08 11:32N 44°44' E 037°47'0 0.0
2015-Apr-08 10:32N 44°44' E 037°47'0 0.0
2015-Apr-08 09:32N 44°44' E 037°47'0 0.0
2015-Apr-08 08:31N 44°44' E 037°47'0 0.0
2015-Apr-08 07:32N 44°44' E 037°47'0 0.0
2015-Apr-08 06:32N 44°44' E 037°47'0 0.0
2015-Apr-08 05:32N 44°44' E 037°47'0 0.0
2015-Apr-08 04:32N 44°44' E 037°47'0 0.0
2015-Apr-08 03:29N 44°44' E 037°47'0 0.0
2015-Apr-07 16:07N 44°44' E 037°47'0 0.0
2015-Apr-07 15:31N 44°44' E 037°47'0 0.0
2015-Apr-07 14:31N 44°44' E 037°47'0 0.0
2015-Apr-07 13:31N 44°44' E 037°47'0 0.0
2015-Apr-07 12:31N 44°44' E 037°47'0 0.0
2015-Apr-07 11:28N 44°44' E 037°47'0 0.0
2015-Apr-07 10:31N 44°44' E 037°47'0 0.0
2015-Apr-07 09:31N 44°44' E 037°47'0 0.0
2015-Apr-07 08:31N 44°44' E 037°47'0 0.0
2015-Apr-07 07:31N 44°44' E 037°47'0 0.0
2015-Apr-07 06:31N 44°44' E 037°47'0 0.0
2015-Apr-07 05:28N 44°44' E 037°47'0 0.0
2015-Apr-07 04:28N 44°44' E 037°47'0 0.0
2015-Apr-07 03:26N 44°44' E 037°47'0 0.0
2015-Apr-06 21:05N 44°44' E 037°47'1 1.6
2015-Apr-06 20:33N 44°43' E 037°48'10 7.8
2015-Apr-06 19:17N 44°34' E 037°51'8 2.5
2015-Apr-06 16:07N 44°27' E 037°44'1 1.3
2015-Apr-06 15:25N 44°27' E 037°46'1 1.1
2015-Apr-06 14:32N 44°28' E 037°47'1 1.0
2015-Apr-06 13:30N 44°28' E 037°48'1 0.7
2015-Apr-06 12:33N 44°28' E 037°49'44211.5
2015-Apr-04 22:04N 40°59' E 028°60'810.7
2015-Apr-04 21:20N 40°52' E 028°54'  
Track history (hours):
 
Tides and Currents Weather Stations Pressure Air Temp Water Temp Dewpoint Dewpoint Depression Visibility Wind Speed Wind Dir Waves Ship Positions

Apostolos A

Last reported at 2015-Apr-13 12:04 UTC. Time now 2015-Apr-19 10:57 UTC.
Position N 44°52' E 036°39'.

Length 182 m; draft 12.2 m.

Type: Tanker. MMSI: 248594000.

Date/timePositionNaut miles runAvg speedWind from/ knotsBaromVisibWave heightAir tempDewpointWater temp
2015-Apr-13 12:04N 44°52' E 036°39'  
2015-Apr-09 00:05N 44°36' E 037°47'5 9.3
2015-Apr-08 23:33N 44°40' E 037°50'4 3.6
2015-Apr-08 22:26N 44°44' E 037°47'0 0.0
2015-Apr-08 20:32N 44°44' E 037°47'0 0.0
2015-Apr-08 17:20N 44°44' E 037°47'0 0.0
2015-Apr-08 16:32N 44°44' E 037°47'0 0.0
2015-Apr-08 15:32N 44°44' E 037°47'0 0.0
2015-Apr-08 14:32N 44°44' E 037°47'0 0.0
2015-Apr-08 13:32N 44°44' E 037°47'0 0.0
2015-Apr-08 12:32N 44°44' E 037°47'0 0.0
2015-Apr-08 11:32N 44°44' E 037°47'0 0.0
2015-Apr-08 10:32N 44°44' E 037°47'0 0.0
2015-Apr-08 09:32N 44°44' E 037°47'0 0.0
2015-Apr-08 08:31N 44°44' E 037°47'0 0.0
2015-Apr-08 07:32N 44°44' E 037°47'0 0.0
2015-Apr-08 06:32N 44°44' E 037°47'0 0.0
2015-Apr-08 05:32N 44°44' E 037°47'0 0.0
2015-Apr-08 04:32N 44°44' E 037°47'0 0.0
2015-Apr-08 03:29N 44°44' E 037°47'0 0.0
2015-Apr-07 16:07N 44°44' E 037°47'0 0.0
2015-Apr-07 15:31N 44°44' E 037°47'0 0.0
2015-Apr-07 14:31N 44°44' E 037°47'0 0.0
2015-Apr-07 13:31N 44°44' E 037°47'0 0.0
2015-Apr-07 12:31N 44°44' E 037°47'0 0.0
2015-Apr-07 11:28N 44°44' E 037°47'0 0.0
2015-Apr-07 10:31N 44°44' E 037°47'0 0.0
2015-Apr-07 09:31N 44°44' E 037°47'0 0.0
2015-Apr-07 08:31N 44°44' E 037°47'0 0.0
2015-Apr-07 07:31N 44°44' E 037°47'0 0.0
2015-Apr-07 06:31N 44°44' E 037°47'0 0.0
2015-Apr-07 05:28N 44°44' E 037°47'0 0.0
2015-Apr-07 04:28N 44°44' E 037°47'0 0.0
2015-Apr-07 03:26N 44°44' E 037°47'0 0.0
2015-Apr-06 21:05N 44°44' E 037°47'1 1.6
2015-Apr-06 20:33N 44°43' E 037°48'10 7.8
2015-Apr-06 19:17N 44°34' E 037°51'8 2.5
2015-Apr-06 16:07N 44°27' E 037°44'1 1.3
2015-Apr-06 15:25N 44°27' E 037°46'1 1.1
2015-Apr-06 14:32N 44°28' E 037°47'1 1.0
2015-Apr-06 13:30N 44°28' E 037°48'1 0.7
2015-Apr-06 12:33N 44°28' E 037°49'44211.5
2015-Apr-04 22:04N 40°59' E 028°60'810.7
2015-Apr-04 21:20N 40°52' E 028°54'  

Dump ship's entire track history